createdAt,value
2023-04-14T00:02:23.928Z,101025.00
2023-04-14T00:04:54.554Z,101039.84
2023-04-14T00:07:21.869Z,101048.84
2023-04-14T00:09:48.791Z,101047.47
2023-04-14T00:12:15.735Z,101042.50
2023-04-14T00:14:43.528Z,101035.88
2023-04-14T00:17:10.979Z,101040.38
2023-04-14T00:19:38.143Z,101048.06
2023-04-14T00:22:05.040Z,101036.66
2023-04-14T00:24:31.989Z,101033.63
2023-04-14T00:26:58.923Z,101039.34
2023-04-14T00:29:26.175Z,101047.56
2023-04-14T00:31:53.371Z,101050.31
2023-04-14T00:34:20.252Z,101061.00
2023-04-14T00:36:47.092Z,101058.72
2023-04-14T00:39:13.900Z,101069.16
2023-04-14T00:41:41.860Z,101068.00
2023-04-14T00:44:08.676Z,101075.13
2023-04-14T00:46:37.110Z,101079.19
2023-04-14T00:49:04.343Z,101077.53
2023-04-14T00:51:32.420Z,101079.44
2023-04-14T00:54:08.658Z,101076.91
2023-04-14T00:56:35.890Z,101079.53
2023-04-14T00:59:03.322Z,101077.41
2023-04-14T01:01:30.746Z,101082.84
2023-04-14T01:03:58.379Z,101081.63
2023-04-14T01:06:27.083Z,101090.53
2023-04-14T01:08:54.962Z,101074.34
2023-04-14T01:11:30.510Z,101095.69
2023-04-14T01:14:12.828Z,101089.84
2023-04-14T01:16:42.497Z,101094.44
2023-04-14T01:19:37.364Z,101089.91
2023-04-14T01:22:07.000Z,101084.63
2023-04-14T01:25:01.366Z,101079.09
2023-04-14T01:27:42.447Z,101087.59
2023-04-14T01:30:30.496Z,101085.72
2023-04-14T01:33:01.164Z,101043.88
2023-04-14T01:35:40.015Z,101080.91
2023-04-14T01:38:18.344Z,101084.13
2023-04-14T01:40:50.492Z,101092.81
2023-04-14T01:43:22.905Z,101086.94
2023-04-14T01:45:52.897Z,101096.81
2023-04-14T01:48:20.457Z,101069.75
2023-04-14T01:50:48.338Z,101080.44
2023-04-14T01:53:18.767Z,101096.19
2023-04-14T01:55:48.064Z,101079.34
2023-04-14T01:58:18.039Z,101097.00
2023-04-14T02:00:46.605Z,101098.16
2023-04-14T02:03:14.632Z,101101.78
2023-04-14T02:05:42.687Z,101043.28
2023-04-14T02:08:15.520Z,101104.13
2023-04-14T02:10:47.997Z,101094.47
2023-04-14T02:13:17.520Z,101098.63
2023-04-14T02:15:45.019Z,101091.66
2023-04-14T02:18:12.247Z,101076.13
2023-04-14T02:20:43.627Z,101087.00
2023-04-14T02:23:13.975Z,101103.22
2023-04-14T02:25:49.908Z,101104.63
2023-04-14T02:28:21.010Z,101102.69
2023-04-14T02:30:52.572Z,101097.19
2023-04-14T02:33:22.812Z,101102.59
2023-04-14T02:36:00.713Z,101099.47
2023-04-14T02:38:32.402Z,101106.72
2023-04-14T02:41:03.886Z,101104.50
2023-04-14T02:43:32.538Z,101105.97
2023-04-14T02:46:03.213Z,101111.81
2023-04-14T02:48:34.583Z,101108.97
2023-04-14T02:51:03.804Z,101091.41
2023-04-14T02:53:30.967Z,101101.06
2023-04-14T02:55:58.428Z,101120.41
2023-04-14T02:58:27.245Z,101124.50
2023-04-14T03:00:54.585Z,101094.47
2023-04-14T03:03:22.953Z,101133.66
2023-04-14T03:05:50.014Z,101127.91
2023-04-14T03:08:17.741Z,101132.56
2023-04-14T03:10:46.806Z,101126.34
2023-04-14T03:13:19.723Z,101131.75
2023-04-14T03:15:47.511Z,101130.09
2023-04-14T03:18:14.810Z,101138.25
2023-04-14T03:20:44.732Z,101133.84
2023-04-14T03:23:12.638Z,101129.97
2023-04-14T03:25:40.988Z,101123.81
2023-04-14T03:28:13.859Z,101132.97
2023-04-14T03:30:46.780Z,101142.59
2023-04-14T03:33:20.019Z,101139.19
2023-04-14T03:35:47.514Z,101135.78
2023-04-14T03:38:16.624Z,101135.50
2023-04-14T03:40:48.137Z,101142.38
2023-04-14T03:43:20.314Z,101143.50
2023-04-14T03:45:49.532Z,101149.09
2023-04-14T03:48:19.452Z,101139.47
2023-04-14T03:50:51.724Z,101148.28
2023-04-14T03:53:21.397Z,101146.22
2023-04-14T03:55:51.695Z,101156.09
2023-04-14T03:58:20.464Z,101146.69
2023-04-14T04:00:48.389Z,101152.78
2023-04-14T04:03:17.119Z,101151.19
2023-04-14T04:05:45.152Z,101146.38
2023-04-14T04:08:14.324Z,101149.19
2023-04-14T04:10:43.043Z,101157.34
2023-04-14T04:13:16.355Z,101157.00
2023-04-14T04:15:45.796Z,101132.69
2023-04-14T04:18:17.490Z,101163.50
2023-04-14T04:20:46.440Z,101165.72
2023-04-14T04:23:15.865Z,101169.22
2023-04-14T04:25:42.923Z,101174.94
2023-04-14T04:28:10.126Z,101177.44
2023-04-14T04:30:40.721Z,101172.03
2023-04-14T04:33:08.516Z,101179.28
2023-04-14T04:35:36.626Z,101179.34
2023-04-14T04:38:05.410Z,101174.63
2023-04-14T04:40:39.093Z,101175.03
2023-04-14T04:43:06.237Z,101178.34
2023-04-14T04:45:49.102Z,101183.59
2023-04-14T04:48:16.171Z,101174.84
2023-04-14T04:50:43.158Z,101180.91
2023-04-14T04:53:10.114Z,101175.69
2023-04-14T04:55:37.301Z,101182.56
2023-04-14T04:58:04.024Z,101183.22
2023-04-14T05:00:30.810Z,101183.22
2023-04-14T05:02:57.892Z,101162.72
2023-04-14T05:05:25.055Z,101165.41
2023-04-14T05:07:52.073Z,101185.97
2023-04-14T05:10:18.721Z,101180.09
2023-04-14T05:12:45.492Z,101176.38
2023-04-14T05:15:13.416Z,101182.84
2023-04-14T05:17:40.389Z,101184.88
2023-04-14T05:20:07.771Z,101173.31
2023-04-14T05:22:34.892Z,101186.50
2023-04-14T05:25:02.025Z,101178.53
2023-04-14T05:27:29.040Z,101180.03
2023-04-14T05:29:55.914Z,101177.38
2023-04-14T05:32:22.839Z,101167.09
2023-04-14T05:34:49.927Z,101174.59
2023-04-14T05:37:18.106Z,101177.66
2023-04-14T05:39:45.396Z,101171.31
2023-04-14T05:42:12.213Z,101179.31
2023-04-14T05:44:39.117Z,101158.06
2023-04-14T05:47:06.130Z,101181.72
2023-04-14T05:49:33.015Z,101193.44
2023-04-14T05:51:59.972Z,101183.16
2023-04-14T05:54:26.934Z,101180.41
2023-04-14T05:56:53.806Z,101185.38
2023-04-14T05:59:21.112Z,101183.22
2023-04-14T06:01:48.011Z,101182.94
2023-04-14T06:04:15.886Z,101179.75
2023-04-14T06:06:42.939Z,101180.13
2023-04-14T06:09:10.045Z,101178.44
2023-04-14T06:11:38.178Z,101183.34
2023-04-14T06:14:07.564Z,101183.72
2023-04-14T06:16:34.673Z,101166.94
2023-04-14T06:19:02.404Z,101174.44
2023-04-14T06:21:29.460Z,101177.78
2023-04-14T06:23:56.152Z,101180.31
2023-04-14T06:26:23.096Z,101176.78
2023-04-14T06:28:50.153Z,101168.72
2023-04-14T06:31:17.126Z,101166.88
2023-04-14T06:33:44.108Z,101166.13
2023-04-14T06:36:11.008Z,101137.16
2023-04-14T06:38:37.896Z,101167.50
2023-04-14T06:41:04.881Z,101155.72
2023-04-14T06:43:31.595Z,101154.66
2023-04-14T06:45:59.764Z,101153.88
2023-04-14T06:48:27.668Z,101148.66
2023-04-14T06:50:56.213Z,101150.13
2023-04-14T06:53:26.377Z,101140.25
2023-04-14T06:55:59.807Z,101148.41
2023-04-14T06:58:28.070Z,101149.06
2023-04-14T07:00:58.902Z,101147.06
2023-04-14T07:03:26.851Z,101156.06
2023-04-14T07:05:53.855Z,101149.25
2023-04-14T07:08:21.441Z,101143.66
2023-04-14T07:10:48.718Z,101142.91
2023-04-14T07:13:15.784Z,101139.88
2023-04-14T07:15:47.347Z,101138.84
2023-04-14T07:18:14.304Z,101140.91
2023-04-14T07:20:41.273Z,101147.03
2023-04-14T07:23:08.321Z,101147.09
2023-04-14T07:25:36.834Z,101143.56
2023-04-14T07:28:06.573Z,101152.78
2023-04-14T07:30:33.431Z,101149.22
2023-04-14T07:33:02.560Z,101145.84
2023-04-14T07:35:29.639Z,101149.81
2023-04-14T07:37:56.933Z,101138.25
2023-04-14T07:40:23.772Z,101153.03
2023-04-14T07:42:50.999Z,101154.09
2023-04-14T07:45:18.231Z,101150.88
2023-04-14T07:47:45.083Z,101155.28
2023-04-14T07:50:12.273Z,101147.00
2023-04-14T07:52:39.007Z,101127.97
2023-04-14T07:55:06.357Z,101148.75
2023-04-14T07:57:35.006Z,101146.34
2023-04-14T08:00:02.412Z,101149.19
2023-04-14T08:02:29.418Z,101149.63
2023-04-14T08:04:56.551Z,101163.78
2023-04-14T08:07:23.394Z,101163.13
2023-04-14T08:09:50.868Z,101160.38
2023-04-14T08:12:17.981Z,101137.75
2023-04-14T08:14:45.206Z,101151.63
2023-04-14T08:17:12.088Z,101158.59
2023-04-14T08:19:39.049Z,101150.31
2023-04-14T08:22:06.096Z,101155.72
2023-04-14T08:24:33.726Z,101160.63
2023-04-14T08:27:02.521Z,101156.47
2023-04-14T08:29:30.349Z,101153.19
2023-04-14T08:31:57.256Z,101157.00
2023-04-14T08:34:28.540Z,101158.66
2023-04-14T08:36:56.820Z,101160.22
2023-04-14T08:39:23.679Z,101162.56
2023-04-14T08:41:52.973Z,101165.78
2023-04-14T08:44:19.924Z,101164.81
2023-04-14T08:46:50.216Z,101144.03
2023-04-14T08:49:36.159Z,101149.81
2023-04-14T08:52:04.592Z,101155.31
2023-04-14T08:54:32.410Z,101154.81
2023-04-14T08:57:01.312Z,101148.88
2023-04-14T08:59:29.419Z,101144.34
2023-04-14T09:01:57.633Z,101155.47
2023-04-14T09:04:25.148Z,101158.47
2023-04-14T09:06:52.694Z,101159.38
2023-04-14T09:09:19.743Z,101145.16
2023-04-14T09:11:47.127Z,101144.81
2023-04-14T09:14:15.218Z,101138.44
2023-04-14T09:16:42.253Z,101145.53
2023-04-14T09:19:09.835Z,101143.75
2023-04-14T09:21:53.330Z,101136.22
2023-04-14T09:24:23.862Z,101142.47
2023-04-14T09:26:55.741Z,101142.09
2023-04-14T09:29:22.782Z,101137.50
2023-04-14T09:31:50.761Z,101137.72
2023-04-14T09:34:20.590Z,101142.03
2023-04-14T09:37:04.845Z,101139.31
2023-04-14T09:39:36.010Z,101147.06
2023-04-14T09:42:03.950Z,101149.81
2023-04-14T09:44:31.352Z,101142.34
2023-04-14T09:46:59.881Z,101148.16
2023-04-14T09:49:28.448Z,101146.81
2023-04-14T09:52:01.696Z,101142.84
2023-04-14T09:54:28.847Z,101136.44
2023-04-14T09:56:56.040Z,101147.53
2023-04-14T09:59:34.420Z,101154.94
2023-04-14T10:02:06.411Z,101166.31
2023-04-14T10:04:34.716Z,101159.41
2023-04-14T10:07:02.249Z,101164.47
2023-04-14T10:09:30.240Z,101164.28
2023-04-14T10:12:17.839Z,101160.69
2023-04-14T10:14:45.061Z,101149.38
2023-04-14T10:17:12.093Z,101132.91
2023-04-14T10:19:39.011Z,101151.16
2023-04-14T10:22:06.577Z,101143.91
2023-04-14T10:24:34.530Z,101139.09
2023-04-14T10:27:05.218Z,101139.56
2023-04-14T10:29:32.294Z,101131.50
2023-04-14T10:32:06.527Z,101117.72
2023-04-14T10:34:34.715Z,101117.56
2023-04-14T10:37:21.951Z,101110.66
2023-04-14T10:39:56.733Z,101074.50
2023-04-14T10:42:24.714Z,101087.56
2023-04-14T10:45:09.076Z,101099.91
2023-04-14T10:47:41.067Z,101102.25
2023-04-14T10:50:18.343Z,101107.56
2023-04-14T10:52:59.240Z,101103.00
2023-04-14T10:55:28.227Z,101096.19
2023-04-14T10:58:06.580Z,101102.06
2023-04-14T11:00:38.714Z,101097.84
2023-04-14T11:03:11.254Z,101095.91
2023-04-14T11:05:48.369Z,101097.44
2023-04-14T11:08:20.146Z,101082.72
2023-04-14T11:10:54.203Z,101082.44
2023-04-14T11:13:21.316Z,101088.72
2023-04-14T11:16:01.684Z,101086.34
2023-04-14T11:18:35.891Z,101086.44
2023-04-14T11:21:14.390Z,101081.88
2023-04-14T11:23:42.385Z,101081.59
2023-04-14T11:26:11.050Z,101092.34
2023-04-14T11:28:39.659Z,101093.06
2023-04-14T11:31:08.572Z,101088.31
2023-04-14T11:33:40.346Z,101073.09
2023-04-14T11:36:09.588Z,101077.97
2023-04-14T11:38:41.082Z,101075.56
2023-04-14T11:41:12.645Z,101070.34
2023-04-14T11:43:46.516Z,101082.69
2023-04-14T11:46:13.481Z,101084.03
2023-04-14T11:48:40.674Z,101086.31
2023-04-14T11:51:07.494Z,101078.16
2023-04-14T11:53:34.873Z,101082.94
2023-04-14T11:56:01.950Z,101084.22
2023-04-14T11:58:29.460Z,101079.53
2023-04-14T12:00:59.952Z,101083.34
2023-04-14T12:03:29.698Z,101079.75
2023-04-14T12:06:01.900Z,101081.78
2023-04-14T12:08:33.472Z,101076.75
2023-04-14T12:11:16.320Z,101082.69
2023-04-14T12:13:44.745Z,101066.69
2023-04-14T12:16:12.955Z,101068.97
2023-04-14T12:18:40.100Z,101081.13
2023-04-14T12:21:09.895Z,101072.66
2023-04-14T12:23:40.358Z,101075.22
2023-04-14T12:26:12.495Z,101075.47
2023-04-14T12:28:41.607Z,101084.75
2023-04-14T12:31:09.611Z,101083.16
2023-04-14T12:33:36.893Z,101087.28
2023-04-14T12:36:06.436Z,101089.44
2023-04-14T12:38:34.450Z,101070.59
2023-04-14T12:41:02.469Z,101068.00
2023-04-14T12:43:37.030Z,101076.28
2023-04-14T12:46:05.699Z,101086.72
2023-04-14T12:48:47.113Z,101057.41
2023-04-14T12:51:18.588Z,101067.09
2023-04-14T12:53:53.942Z,101073.69
2023-04-14T12:56:23.957Z,101082.69
2023-04-14T12:58:51.707Z,101079.44
2023-04-14T13:01:21.065Z,101083.41
2023-04-14T13:03:55.675Z,101083.53
2023-04-14T13:06:24.139Z,101071.81
2023-04-14T13:08:54.940Z,101075.38
2023-04-14T13:11:26.404Z,101073.09
2023-04-14T13:13:54.360Z,101071.19
2023-04-14T13:16:22.386Z,101063.88
2023-04-14T13:18:49.816Z,101060.75
2023-04-14T13:21:17.278Z,101055.88
2023-04-14T13:23:44.316Z,101043.19
2023-04-14T13:26:13.131Z,101042.66
2023-04-14T13:28:40.014Z,101030.13
2023-04-14T13:31:07.277Z,101031.94
2023-04-14T13:33:34.401Z,101027.75
2023-04-14T13:36:02.846Z,101029.41
2023-04-14T13:38:31.159Z,101024.03
2023-04-14T13:40:58.446Z,101014.75
2023-04-14T13:43:25.274Z,101016.06
2023-04-14T13:45:53.073Z,101018.72
2023-04-14T13:48:20.283Z,101007.44
2023-04-14T13:50:47.740Z,100996.19
2023-04-14T13:53:14.560Z,100975.00
2023-04-14T13:55:41.880Z,101022.41
2023-04-14T13:58:08.745Z,101017.66
2023-04-14T14:00:35.906Z,101003.31
2023-04-14T14:03:02.954Z,101017.25
2023-04-14T14:05:30.191Z,101017.22
2023-04-14T14:07:57.493Z,101020.19
2023-04-14T14:10:24.671Z,101016.69
2023-04-14T14:12:51.971Z,101022.31
2023-04-14T14:15:18.923Z,101014.00
2023-04-14T14:17:46.576Z,101015.41
2023-04-14T14:20:13.458Z,101011.78
2023-04-14T14:22:40.694Z,101021.50
2023-04-14T14:25:19.207Z,101022.06
2023-04-14T14:27:47.845Z,101012.06
2023-04-14T14:30:14.784Z,101005.91
2023-04-14T14:32:41.811Z,100993.06
2023-04-14T14:35:09.108Z,100999.38
2023-04-14T14:37:36.860Z,100976.47
2023-04-14T14:40:04.186Z,100991.50
2023-04-14T14:42:31.655Z,100993.50
2023-04-14T14:45:01.092Z,100979.63
2023-04-14T14:47:28.653Z,100986.88
2023-04-14T14:50:00.439Z,100989.44
2023-04-14T14:52:30.346Z,100983.50
2023-04-14T14:54:57.538Z,100990.94
2023-04-14T14:57:24.983Z,100988.28
2023-04-14T14:59:53.148Z,100993.25
2023-04-14T15:02:21.872Z,100998.41
2023-04-14T15:04:49.170Z,100992.91
2023-04-14T15:07:16.133Z,100995.97
2023-04-14T15:09:43.322Z,100991.44
2023-04-14T15:12:10.457Z,100998.78
2023-04-14T15:14:37.427Z,100997.69
2023-04-14T15:17:04.300Z,100999.13
2023-04-14T15:19:31.296Z,100978.13
2023-04-14T15:21:59.214Z,100994.00
2023-04-14T15:24:26.286Z,100993.25
2023-04-14T15:26:53.177Z,100992.25
2023-04-14T15:29:20.082Z,100990.97
2023-04-14T15:31:47.095Z,100993.19
2023-04-14T15:34:13.979Z,100999.22
2023-04-14T15:36:40.743Z,101003.25
2023-04-14T15:39:07.976Z,100999.25
2023-04-14T15:41:36.556Z,101000.34
2023-04-14T15:44:03.909Z,100994.13
2023-04-14T15:46:31.356Z,100993.41
2023-04-14T15:48:59.400Z,100986.28
2023-04-14T15:51:26.267Z,100988.81
2023-04-14T15:53:53.319Z,100988.03
2023-04-14T15:56:23.550Z,100998.91
2023-04-14T15:58:50.782Z,100997.19
2023-04-14T16:01:17.831Z,100994.84
2023-04-14T16:03:45.008Z,100999.63
2023-04-14T16:06:12.628Z,101000.44
2023-04-14T16:08:39.965Z,100999.13
2023-04-14T16:11:08.108Z,100997.44
2023-04-14T16:13:35.363Z,101008.78
2023-04-14T16:16:02.465Z,101006.88
2023-04-14T16:18:29.300Z,101000.84
2023-04-14T16:20:56.403Z,100998.56
2023-04-14T16:23:23.422Z,101001.25
2023-04-14T16:25:50.645Z,100989.25
2023-04-14T16:28:17.761Z,101011.09
2023-04-14T16:30:46.010Z,101009.31
2023-04-14T16:33:13.086Z,101006.22
2023-04-14T16:35:40.412Z,101004.09
2023-04-14T16:38:08.844Z,101008.38
2023-04-14T16:40:37.529Z,101000.81
2023-04-14T16:43:04.938Z,101002.78
2023-04-14T16:45:32.341Z,101007.69
2023-04-14T16:47:59.680Z,101003.94
2023-04-14T16:50:27.126Z,101006.53
2023-04-14T16:52:54.221Z,101002.94
2023-04-14T16:55:22.438Z,101007.19
2023-04-14T16:57:49.301Z,101012.28
2023-04-14T17:00:17.048Z,101015.75
2023-04-14T17:02:44.234Z,101015.56
2023-04-14T17:05:13.432Z,101020.19
2023-04-14T17:07:41.464Z,101021.16
2023-04-14T17:10:08.935Z,101015.06
2023-04-14T17:12:35.737Z,101002.41
2023-04-14T17:15:03.884Z,101026.09
2023-04-14T17:17:34.028Z,101031.97
2023-04-14T17:20:01.053Z,101020.81
2023-04-14T17:22:28.229Z,101022.97
2023-04-14T17:24:55.558Z,101036.44
2023-04-14T17:27:22.673Z,101030.75
2023-04-14T17:29:49.688Z,101035.34
2023-04-14T17:32:18.799Z,101033.59
2023-04-14T17:34:49.087Z,101029.03
2023-04-14T17:37:16.424Z,101028.78
2023-04-14T17:39:43.641Z,101035.38
2023-04-14T17:42:11.666Z,101021.97
2023-04-14T17:44:38.683Z,101041.19
2023-04-14T17:47:13.375Z,101038.53
2023-04-14T17:49:40.237Z,101043.69
2023-04-14T17:52:07.989Z,101047.50
2023-04-14T17:54:36.410Z,101039.31
2023-04-14T17:57:13.360Z,101042.31
2023-04-14T17:59:41.788Z,101046.38
2023-04-14T18:02:09.296Z,101046.47
2023-04-14T18:04:36.756Z,101059.78
2023-04-14T18:07:04.842Z,101063.22
2023-04-14T18:09:31.679Z,101057.75
2023-04-14T18:11:59.213Z,101060.31
2023-04-14T18:14:27.529Z,101065.38
2023-04-14T18:16:55.476Z,101068.88
2023-04-14T18:19:23.401Z,101060.75
2023-04-14T18:21:50.665Z,101067.53
2023-04-14T18:26:47.759Z,101070.34
2023-04-14T18:29:14.935Z,101079.78
2023-04-14T18:31:42.841Z,101068.28
2023-04-14T18:34:10.688Z,101080.09
2023-04-14T18:36:38.110Z,101078.78
2023-04-14T18:39:05.189Z,101079.59
2023-04-14T18:41:32.126Z,101081.78
2023-04-14T18:44:01.466Z,101080.41
2023-04-14T18:46:28.653Z,101074.16
2023-04-14T18:48:55.638Z,101076.59
2023-04-14T18:51:22.587Z,101083.44
2023-04-14T18:53:49.585Z,101087.19
2023-04-14T18:56:16.563Z,101084.16
2023-04-14T18:58:43.699Z,101092.41
2023-04-14T19:01:10.546Z,101093.09
2023-04-14T19:03:37.970Z,101079.66
2023-04-14T19:06:05.109Z,101106.16
2023-04-14T19:08:31.966Z,101102.84
2023-04-14T19:10:59.424Z,101111.31
2023-04-14T19:13:26.337Z,101112.38
2023-04-14T19:15:53.194Z,101118.25
2023-04-14T19:18:20.688Z,101119.41
2023-04-14T19:20:47.901Z,101119.63
2023-04-14T19:23:14.950Z,101121.69
2023-04-14T19:25:41.963Z,101127.50
2023-04-14T19:28:16.690Z,101119.56
2023-04-14T19:30:45.905Z,101128.63
2023-04-14T19:33:13.301Z,101125.28
2023-04-14T19:35:40.348Z,101125.69
2023-04-14T19:38:08.113Z,101117.53
2023-04-14T19:40:34.972Z,101129.41
2023-04-14T19:43:02.142Z,101121.75
2023-04-14T19:45:29.464Z,101116.44
2023-04-14T19:47:56.770Z,101120.69
2023-04-14T19:50:24.434Z,101120.63
2023-04-14T19:52:52.476Z,101116.13
2023-04-14T19:55:19.569Z,101109.72
2023-04-14T19:57:47.174Z,101118.31
2023-04-14T20:00:15.921Z,101105.41
2023-04-14T20:02:43.162Z,101103.03
2023-04-14T20:05:10.264Z,101091.09
2023-04-14T20:07:37.295Z,101100.22
2023-04-14T20:10:04.324Z,101106.63
2023-04-14T20:12:31.428Z,101099.28
2023-04-14T20:14:58.336Z,101108.31
2023-04-14T20:17:27.478Z,101095.94
2023-04-14T20:19:55.083Z,101090.09
2023-04-14T20:22:22.033Z,101092.09
2023-04-14T20:24:48.888Z,101098.25
2023-04-14T20:27:15.841Z,101099.03
2023-04-14T20:29:42.767Z,101093.59
2023-04-14T20:32:09.857Z,101100.34
2023-04-14T20:34:36.865Z,101086.03
2023-04-14T20:37:03.849Z,101094.81
2023-04-14T20:39:30.785Z,101090.25
2023-04-14T20:41:57.842Z,101082.47
2023-04-14T20:44:24.649Z,101095.53
2023-04-14T20:46:52.145Z,101094.88
2023-04-14T20:49:19.077Z,101087.25
2023-04-14T20:51:46.928Z,101081.72
2023-04-14T20:54:14.162Z,101089.34
2023-04-14T20:56:41.261Z,101086.75
2023-04-14T20:59:08.162Z,101088.44
2023-04-14T21:01:35.162Z,101075.41
2023-04-14T21:04:02.232Z,101086.13
2023-04-14T21:06:32.407Z,101077.81
2023-04-14T21:09:00.532Z,101084.03
2023-04-14T21:11:27.546Z,101075.88
2023-04-14T21:15:47.264Z,101072.72
2023-04-14T21:16:44.760Z,101067.75
2023-04-14T21:19:13.645Z,101065.44
2023-04-14T21:21:40.721Z,101073.19
2023-04-14T21:24:08.536Z,101073.63
2023-04-14T21:26:35.372Z,101080.06
2023-04-14T21:29:02.603Z,101069.47
2023-04-14T21:31:29.843Z,101052.09
2023-04-14T21:33:57.489Z,101079.47
2023-04-14T21:36:24.712Z,101070.69
2023-04-14T21:38:52.020Z,101084.63
2023-04-14T21:41:18.894Z,101086.00
2023-04-14T21:43:45.819Z,101077.22
2023-04-14T21:46:12.997Z,101063.03
2023-04-14T21:48:40.168Z,101066.78
2023-04-14T21:51:07.808Z,101069.03
2023-04-14T21:53:39.069Z,101066.34
2023-04-14T21:56:10.037Z,101053.44
2023-04-14T21:58:41.280Z,101048.72
2023-04-14T22:01:10.561Z,101068.13
2023-04-14T22:03:41.050Z,101062.66
2023-04-14T22:06:10.214Z,101062.91
2023-04-14T22:08:38.604Z,101064.16
2023-04-14T22:11:07.255Z,101066.63
2023-04-14T22:13:34.355Z,101044.06
2023-04-14T22:16:01.487Z,101065.28
2023-04-14T22:18:29.003Z,101055.44
2023-04-14T22:20:55.974Z,101052.00
2023-04-14T22:23:29.191Z,101065.94
2023-04-14T22:25:56.390Z,101061.16
2023-04-14T22:28:23.352Z,101064.13
2023-04-14T22:30:50.552Z,101057.31
2023-04-14T22:33:17.479Z,101067.78
2023-04-14T22:35:44.315Z,101062.53
2023-04-14T22:38:11.209Z,101067.97
2023-04-14T22:40:38.019Z,101067.06
2023-04-14T22:43:08.992Z,101066.81
2023-04-14T22:45:39.734Z,101069.56
2023-04-14T22:48:09.296Z,101064.06
2023-04-14T22:50:37.010Z,101061.88
2023-04-14T22:53:07.051Z,101058.00
2023-04-14T22:55:34.562Z,101071.41
2023-04-14T22:58:01.497Z,101046.41
2023-04-14T23:00:28.809Z,101065.22
2023-04-14T23:02:56.269Z,101063.69
2023-04-14T23:05:24.496Z,101057.41
2023-04-14T23:07:51.436Z,101054.56
2023-04-14T23:10:18.573Z,101068.75
2023-04-14T23:12:45.791Z,101068.31
2023-04-14T23:15:12.713Z,101064.16
2023-04-14T23:17:39.508Z,101057.88
2023-04-14T23:20:07.270Z,101053.22
2023-04-14T23:22:34.102Z,101059.66
2023-04-14T23:25:01.102Z,101058.34
2023-04-14T23:27:28.981Z,101033.59
2023-04-14T23:29:55.797Z,101046.59
2023-04-14T23:32:22.808Z,101054.81
2023-04-14T23:34:49.676Z,101038.84
2023-04-14T23:37:16.574Z,101046.66
2023-04-14T23:39:43.467Z,101046.16
2023-04-14T23:42:10.586Z,101041.47
2023-04-14T23:44:37.509Z,101044.00
2023-04-14T23:47:06.336Z,101045.47
2023-04-14T23:49:35.349Z,101041.13
2023-04-14T23:52:03.606Z,101039.41
2023-04-14T23:54:32.015Z,101027.47
2023-04-14T23:56:58.889Z,101034.13
2023-04-14T23:59:26.515Z,101036.69
